createdAt,value
2018-10-16T00:00:24.673Z,22.20
2018-10-16T00:03:27.571Z,20.93
2018-10-16T00:06:31.075Z,20.00
2018-10-16T00:09:34.666Z,18.37
2018-10-16T00:12:37.634Z,18.70
2018-10-16T00:15:40.478Z,19.03
2018-10-16T00:18:43.691Z,18.40
2018-10-16T00:21:46.499Z,16.73
2018-10-16T00:24:49.325Z,18.67
2018-10-16T00:27:52.182Z,18.43
2018-10-16T00:30:55.193Z,17.63
2018-10-16T00:33:57.963Z,16.83
2018-10-16T00:37:00.776Z,17.47
2018-10-16T00:40:03.770Z,18.27
2018-10-16T00:43:06.979Z,16.57
2018-10-16T00:46:09.832Z,17.00
2018-10-16T00:49:12.619Z,16.93
2018-10-16T00:52:16.327Z,16.27
2018-10-16T00:55:19.755Z,14.20
2018-10-16T00:58:23.594Z,15.00
2018-10-16T01:01:32.329Z,14.50
2018-10-16T01:04:35.080Z,13.43
2018-10-16T01:07:38.148Z,11.53
2018-10-16T01:10:40.930Z,12.60
2018-10-16T01:13:43.787Z,10.13
2018-10-16T01:16:46.867Z,7.90
2018-10-16T01:19:49.742Z,8.73
2018-10-16T01:22:52.505Z,7.37
2018-10-16T01:25:55.285Z,6.23
2018-10-16T01:28:58.028Z,5.43
2018-10-16T01:32:00.968Z,5.17
2018-10-16T01:35:05.167Z,3.93
2018-10-16T01:38:08.546Z,3.23
2018-10-16T01:41:11.427Z,2.97
2018-10-16T01:44:14.248Z,3.40
2018-10-16T01:47:17.118Z,3.07
2018-10-16T01:50:20.028Z,3.13
2018-10-16T01:53:22.990Z,3.10
2018-10-16T01:56:27.038Z,3.37
2018-10-16T01:59:29.873Z,3.27
2018-10-16T02:02:32.749Z,3.80
2018-10-16T02:05:36.059Z,3.70
2018-10-16T02:08:39.229Z,3.13
2018-10-16T02:11:42.127Z,3.30
2018-10-16T02:14:45.040Z,3.73
2018-10-16T02:17:48.632Z,4.43
2018-10-16T02:20:51.572Z,3.97
2018-10-16T02:23:54.438Z,4.60
2018-10-16T02:26:57.367Z,3.43
2018-10-16T02:30:00.571Z,3.60
2018-10-16T02:33:03.656Z,3.70
2018-10-16T02:36:07.192Z,3.43
2018-10-16T02:39:10.943Z,3.07
2018-10-16T02:42:13.831Z,2.73
2018-10-16T02:45:17.002Z,3.13
2018-10-16T02:48:20.440Z,3.07
2018-10-16T02:51:24.109Z,3.37
2018-10-16T02:54:27.545Z,3.10
2018-10-16T02:57:30.331Z,3.53
2018-10-16T03:00:33.572Z,3.87
2018-10-16T03:03:38.714Z,3.43
2018-10-16T03:06:41.480Z,2.67
2018-10-16T03:09:44.304Z,4.30
2018-10-16T03:12:47.246Z,4.90
2018-10-16T03:15:50.153Z,3.93
2018-10-16T03:18:53.676Z,4.30
2018-10-16T03:21:56.507Z,4.20
2018-10-16T03:24:59.346Z,5.10
2018-10-16T03:28:02.753Z,5.63
2018-10-16T03:31:05.619Z,6.27
2018-10-16T03:34:09.111Z,7.23
2018-10-16T03:37:11.883Z,5.80
2018-10-16T03:40:14.782Z,6.43
2018-10-16T03:43:17.589Z,6.40
2018-10-16T03:46:20.896Z,6.67
2018-10-16T03:49:24.608Z,5.90
2018-10-16T03:52:27.409Z,6.17
2018-10-16T03:55:30.129Z,7.40
2018-10-16T03:58:33.058Z,7.23
2018-10-16T04:01:35.812Z,7.07
2018-10-16T04:04:38.826Z,8.87
2018-10-16T04:07:42.305Z,9.87
2018-10-16T04:10:45.180Z,6.97
2018-10-16T04:13:49.021Z,7.93
2018-10-16T04:16:52.133Z,7.03
2018-10-16T04:19:55.194Z,7.07
2018-10-16T04:22:58.696Z,8.13
2018-10-16T04:26:01.623Z,6.20
2018-10-16T04:29:05.344Z,6.27
2018-10-16T04:32:08.256Z,6.33
2018-10-16T04:35:14.086Z,6.17
2018-10-16T04:38:16.983Z,7.47
2018-10-16T04:41:20.584Z,6.57
2018-10-16T04:44:23.518Z,6.77
2018-10-16T04:47:26.369Z,6.10
2018-10-16T04:50:29.264Z,7.50
2018-10-16T04:53:32.199Z,6.97
2018-10-16T04:56:35.672Z,7.63
2018-10-16T04:59:38.454Z,9.27
2018-10-16T05:02:41.879Z,8.27
2018-10-16T05:05:44.818Z,9.97
2018-10-16T05:08:47.688Z,11.90
2018-10-16T05:11:52.227Z,11.10
2018-10-16T05:14:55.636Z,10.83
2018-10-16T05:17:58.659Z,12.67
2018-10-16T05:21:01.467Z,12.17
2018-10-16T05:24:05.339Z,12.77
2018-10-16T05:27:08.241Z,12.07
2018-10-16T05:30:11.542Z,14.27
2018-10-16T05:33:14.342Z,14.77
2018-10-16T05:36:17.119Z,14.20
2018-10-16T05:39:20.389Z,15.50
2018-10-16T05:42:23.332Z,16.83
2018-10-16T05:45:27.812Z,17.87
2018-10-16T05:48:30.727Z,17.93
2018-10-16T05:51:33.607Z,18.97
2018-10-16T05:54:36.554Z,19.03
2018-10-16T05:57:39.531Z,20.53
2018-10-16T06:00:45.767Z,20.87
2018-10-16T06:03:48.585Z,21.60
2018-10-16T06:06:52.000Z,22.07
2018-10-16T06:09:54.793Z,22.10
2018-10-16T06:12:57.628Z,22.53
2018-10-16T06:16:00.474Z,22.77
2018-10-16T06:19:04.400Z,22.40
2018-10-16T06:22:07.434Z,21.63
2018-10-16T06:25:10.450Z,21.93
2018-10-16T06:28:17.376Z,23.20
2018-10-16T06:31:21.263Z,23.87
2018-10-16T06:34:23.991Z,23.60
2018-10-16T06:37:27.003Z,22.37
2018-10-16T06:40:32.473Z,22.60
2018-10-16T06:43:36.593Z,24.50
2018-10-16T06:46:39.422Z,22.80
2018-10-16T06:49:42.070Z,22.83
2018-10-16T06:52:44.861Z,23.93
2018-10-16T06:55:47.635Z,24.27
2018-10-16T06:58:50.415Z,24.27
2018-10-16T07:01:53.882Z,23.47
2018-10-16T07:04:57.075Z,25.67
2018-10-16T07:07:59.828Z,26.10
2018-10-16T07:11:02.875Z,25.03
2018-10-16T07:14:08.231Z,26.03
2018-10-16T07:17:15.752Z,24.33
2018-10-16T07:20:18.621Z,24.43
2018-10-16T07:23:22.602Z,23.70
2018-10-16T07:26:25.336Z,23.83
2018-10-16T07:29:28.239Z,23.03
2018-10-16T07:32:33.337Z,25.20
2018-10-16T07:35:36.117Z,24.77
2018-10-16T07:38:39.031Z,26.47
2018-10-16T07:41:42.158Z,26.43
2018-10-16T07:44:45.001Z,26.20
2018-10-16T07:47:47.822Z,27.63
2018-10-16T07:50:50.730Z,25.53
2018-10-16T07:53:53.529Z,26.40
2018-10-16T07:56:56.575Z,26.83
2018-10-16T07:59:59.877Z,29.17
2018-10-16T08:03:03.513Z,29.03
2018-10-16T08:06:06.917Z,27.93
2018-10-16T08:09:14.446Z,27.30
2018-10-16T08:12:17.189Z,25.53
2018-10-16T08:15:20.520Z,26.40
2018-10-16T08:18:23.476Z,29.70
2018-10-16T08:21:26.239Z,30.23
2018-10-16T08:24:29.459Z,30.60
2018-10-16T08:27:32.312Z,30.83
2018-10-16T08:30:35.048Z,31.87
2018-10-16T08:33:37.685Z,32.63
2018-10-16T08:36:40.525Z,32.40
2018-10-16T08:39:43.660Z,30.10
2018-10-16T08:42:58.484Z,32.07
2018-10-16T08:46:12.587Z,33.20
2018-10-16T08:49:26.708Z,33.10
2018-10-16T08:52:29.488Z,33.43
2018-10-16T08:55:32.623Z,32.25
2018-10-16T08:58:35.431Z,34.65
2018-10-16T09:01:38.248Z,33.85
2018-10-16T09:04:41.368Z,32.88
2018-10-16T09:07:47.618Z,33.88
2018-10-16T09:10:50.568Z,32.95
2018-10-16T09:13:53.350Z,32.75
2018-10-16T09:16:56.208Z,33.58
2018-10-16T09:19:59.009Z,35.23
2018-10-16T09:23:01.854Z,33.88
2018-10-16T09:26:05.042Z,33.02
2018-10-16T09:29:07.890Z,31.93
2018-10-16T09:32:11.349Z,33.92
2018-10-16T09:35:15.286Z,32.60
2018-10-16T09:38:18.117Z,32.13
2018-10-16T09:41:21.400Z,33.23
2018-10-16T09:44:27.900Z,33.48
2018-10-16T09:47:30.820Z,32.75
2018-10-16T09:50:33.695Z,31.40
2018-10-16T09:53:36.943Z,31.68
2018-10-16T09:56:39.896Z,31.65
2018-10-16T09:59:42.979Z,32.10
2018-10-16T10:02:45.943Z,29.57
2018-10-16T10:05:52.240Z,31.48
2018-10-16T10:08:56.759Z,30.97
2018-10-16T10:11:59.688Z,29.77
2018-10-16T10:15:02.841Z,30.23
2018-10-16T10:18:05.753Z,31.42
2018-10-16T10:21:08.536Z,31.00
2018-10-16T10:24:11.437Z,30.68
2018-10-16T10:27:16.109Z,30.05
2018-10-16T10:30:24.008Z,29.50
2018-10-16T10:33:27.501Z,30.88
2018-10-16T10:36:30.395Z,30.05
2018-10-16T10:39:33.095Z,29.48
2018-10-16T10:42:35.744Z,29.85
2018-10-16T10:45:39.190Z,27.95
2018-10-16T10:48:42.288Z,28.90
2018-10-16T10:51:46.425Z,27.90
2018-10-16T10:54:50.278Z,30.02
2018-10-16T10:57:53.191Z,29.65
2018-10-16T11:00:55.972Z,29.92
2018-10-16T11:03:59.253Z,28.38
2018-10-16T11:07:02.350Z,28.90
2018-10-16T11:10:08.133Z,27.98
2018-10-16T11:13:11.248Z,28.87
2018-10-16T11:16:15.315Z,28.12
2018-10-16T11:19:18.584Z,26.52
2018-10-16T11:22:22.131Z,26.42
2018-10-16T11:25:25.962Z,28.20
2018-10-16T11:28:29.116Z,28.20
2018-10-16T11:31:32.089Z,28.40
2018-10-16T11:34:35.319Z,27.77
2018-10-16T11:37:38.113Z,28.95
2018-10-16T11:40:42.958Z,27.95
2018-10-16T11:43:46.029Z,26.52
2018-10-16T11:46:48.956Z,28.62
2018-10-16T11:49:52.114Z,27.32
2018-10-16T11:52:55.030Z,26.82
2018-10-16T11:55:57.752Z,27.55
2018-10-16T11:59:00.482Z,26.55
2018-10-16T12:02:04.072Z,26.45
2018-10-16T12:05:06.944Z,26.62
2018-10-16T12:08:10.089Z,26.17
2018-10-16T12:11:12.882Z,24.77
2018-10-16T12:14:15.634Z,26.65
2018-10-16T12:17:31.218Z,25.97
2018-10-16T12:20:36.989Z,25.82
2018-10-16T12:23:39.967Z,25.92
2018-10-16T12:26:42.830Z,25.37
2018-10-16T12:29:45.903Z,26.55
2018-10-16T12:32:48.700Z,27.58
2018-10-16T12:35:51.449Z,26.40
2018-10-16T12:38:54.843Z,24.35
2018-10-16T12:41:57.671Z,25.82
2018-10-16T12:45:01.077Z,25.88
2018-10-16T12:48:05.809Z,25.25
2018-10-16T12:51:08.624Z,26.33
2018-10-16T12:54:11.466Z,25.40
2018-10-16T12:57:14.761Z,25.40
2018-10-16T13:00:17.780Z,24.98
2018-10-16T13:03:20.573Z,26.37
2018-10-16T13:06:23.425Z,24.65
2018-10-16T13:09:31.358Z,24.90
2018-10-16T13:12:34.260Z,25.75
2018-10-16T13:15:37.993Z,26.65
2018-10-16T13:18:43.242Z,24.85
2018-10-16T13:21:45.953Z,22.82
2018-10-16T13:24:48.740Z,25.75
2018-10-16T13:27:51.644Z,23.85
2018-10-16T13:30:54.491Z,27.35
2018-10-16T13:33:57.898Z,28.83
2018-10-16T13:37:00.814Z,26.45
2018-10-16T13:40:04.215Z,26.45
2018-10-16T13:43:06.947Z,26.05
2018-10-16T13:46:12.379Z,25.75
2018-10-16T13:49:15.072Z,27.58
2018-10-16T13:52:18.082Z,25.75
2018-10-16T13:55:21.654Z,25.17
2018-10-16T13:58:24.949Z,26.57
2018-10-16T14:01:28.327Z,26.77
2018-10-16T14:04:31.168Z,27.65
2018-10-16T14:07:34.218Z,27.07
2018-10-16T14:14:05.961Z,26.60
2018-10-16T14:17:09.078Z,27.52
2018-10-16T14:20:12.029Z,28.90
2018-10-16T14:23:14.750Z,29.27
2018-10-16T14:26:18.007Z,29.77
2018-10-16T14:29:22.564Z,28.47
2018-10-16T14:32:25.577Z,28.80
2018-10-16T14:35:28.244Z,30.10
2018-10-16T14:38:31.553Z,28.90
2018-10-16T14:41:34.248Z,28.92
2018-10-16T14:44:37.251Z,27.85
2018-10-16T14:47:40.084Z,27.90
2018-10-16T14:50:43.026Z,28.10
2018-10-16T14:53:45.842Z,27.35
2018-10-16T14:56:48.889Z,27.55
2018-10-16T14:59:51.587Z,27.15
2018-10-16T15:02:54.609Z,26.73
2018-10-16T15:05:57.342Z,27.40
2018-10-16T15:09:00.050Z,26.77
2018-10-16T15:12:03.179Z,26.70
2018-10-16T15:15:07.436Z,27.02
2018-10-16T15:18:10.260Z,27.98
2018-10-16T15:21:13.362Z,27.93
2018-10-16T15:24:16.173Z,28.50
2018-10-16T15:27:21.120Z,27.85
2018-10-16T15:30:23.877Z,27.52
2018-10-16T15:33:27.018Z,28.73
2018-10-16T15:36:29.942Z,28.32
2018-10-16T15:39:32.652Z,28.50
2018-10-16T15:42:35.461Z,31.50
2018-10-16T15:45:38.428Z,32.95
2018-10-16T15:48:41.502Z,32.42
2018-10-16T15:51:44.296Z,34.10
2018-10-16T15:54:47.323Z,34.78
2018-10-16T15:57:50.279Z,36.50
2018-10-16T16:00:53.176Z,36.58
2018-10-16T16:03:56.897Z,37.00
2018-10-16T16:07:00.292Z,38.08
2018-10-16T16:10:03.976Z,37.10
2018-10-16T16:13:08.880Z,36.70
2018-10-16T16:16:11.755Z,35.23
2018-10-16T16:19:14.972Z,34.83
2018-10-16T16:22:18.019Z,35.50
2018-10-16T16:25:21.884Z,36.93
2018-10-16T16:28:24.614Z,35.95
2018-10-16T16:31:27.524Z,35.88
2018-10-16T16:34:31.705Z,36.60
2018-10-16T16:37:34.534Z,36.70
2018-10-16T16:40:37.429Z,36.88
2018-10-16T16:43:40.212Z,37.53
2018-10-16T16:46:43.165Z,37.85
2018-10-16T16:49:46.035Z,36.17
2018-10-16T16:52:48.776Z,36.90
2018-10-16T16:55:51.907Z,36.45
2018-10-16T16:58:54.690Z,34.93
2018-10-16T17:01:57.481Z,36.50
2018-10-16T17:05:01.803Z,36.13
2018-10-16T17:08:04.860Z,36.83
2018-10-16T17:11:08.726Z,37.05
2018-10-16T17:14:12.434Z,37.33
2018-10-16T17:17:15.189Z,35.97
2018-10-16T17:20:18.024Z,37.97
2018-10-16T17:23:21.278Z,41.47
2018-10-16T17:26:24.331Z,39.93
2018-10-16T17:29:26.920Z,39.33
2018-10-16T17:32:29.809Z,39.60
2018-10-16T17:35:34.260Z,37.15
2018-10-16T17:38:37.041Z,36.70
2018-10-16T17:41:40.680Z,36.53
2018-10-16T17:44:43.468Z,36.77
2018-10-16T17:47:46.256Z,36.23
2018-10-16T17:50:48.986Z,35.73
2018-10-16T17:53:51.839Z,35.63
2018-10-16T17:56:54.852Z,35.80
2018-10-16T17:59:57.637Z,35.60
2018-10-16T18:03:00.475Z,37.13
2018-10-16T18:06:03.632Z,37.77
2018-10-16T18:09:06.739Z,37.43
2018-10-16T18:12:09.422Z,38.10
2018-10-16T18:15:13.340Z,39.20
2018-10-16T18:18:16.195Z,41.63
2018-10-16T18:21:19.634Z,41.87
2018-10-16T18:24:22.400Z,41.83
2018-10-16T18:27:25.099Z,43.90
2018-10-16T18:30:27.797Z,44.90
2018-10-16T18:33:30.522Z,45.60
2018-10-16T18:36:33.243Z,42.70
2018-10-16T18:39:36.136Z,43.73
2018-10-16T18:42:39.374Z,42.07
2018-10-16T18:45:42.150Z,44.40
2018-10-16T18:48:45.276Z,42.67
2018-10-16T18:51:47.990Z,43.53
2018-10-16T18:54:50.865Z,45.83
2018-10-16T18:57:53.632Z,48.67
2018-10-16T19:00:56.444Z,45.43
2018-10-16T19:03:59.318Z,46.57
2018-10-16T19:07:02.917Z,47.93
2018-10-16T19:10:06.083Z,52.20
2018-10-16T19:13:08.859Z,51.97
2018-10-16T19:16:11.615Z,52.03
2018-10-16T19:19:14.413Z,57.30
2018-10-16T19:22:17.098Z,50.13
2018-10-16T19:25:20.690Z,47.63
2018-10-16T19:28:23.460Z,41.47
2018-10-16T19:31:27.879Z,36.70
2018-10-16T19:34:30.974Z,34.97
2018-10-16T19:37:34.356Z,32.77
2018-10-16T19:40:37.772Z,29.57
2018-10-16T19:43:40.521Z,30.30
2018-10-16T19:46:43.262Z,27.83
2018-10-16T19:49:46.080Z,28.83
2018-10-16T19:52:48.865Z,28.33
2018-10-16T19:55:51.630Z,27.80
2018-10-16T19:58:54.571Z,28.60
2018-10-16T20:01:57.284Z,28.33
2018-10-16T20:05:00.090Z,26.57
2018-10-16T20:08:03.960Z,28.93
2018-10-16T20:11:06.748Z,26.67
2018-10-16T20:14:09.473Z,28.33
2018-10-16T20:17:12.304Z,28.43
2018-10-16T20:20:15.757Z,28.97
2018-10-16T20:23:18.531Z,27.50
2018-10-16T20:26:21.594Z,28.57
2018-10-16T20:29:25.016Z,25.13
2018-10-16T20:32:27.865Z,28.27
2018-10-16T20:35:30.565Z,27.17
2018-10-16T20:38:33.302Z,29.60
2018-10-16T20:41:36.020Z,30.60
2018-10-16T20:44:39.936Z,31.17
2018-10-16T20:47:42.813Z,31.57
2018-10-16T20:50:46.264Z,30.80
2018-10-16T20:53:49.023Z,34.17
2018-10-16T20:56:51.981Z,34.87
2018-10-16T20:59:55.545Z,32.43
2018-10-16T21:02:58.389Z,33.33
2018-10-16T21:06:01.428Z,35.00
2018-10-16T21:09:05.847Z,37.03
2018-10-16T21:12:08.562Z,36.37
2018-10-16T21:15:11.378Z,36.03
2018-10-16T21:18:14.209Z,37.47
2018-10-16T21:21:17.157Z,38.47
2018-10-16T21:24:20.334Z,40.23
2018-10-16T21:27:23.239Z,38.37
2018-10-16T21:30:26.056Z,39.17
2018-10-16T21:33:28.943Z,40.13
2018-10-16T21:36:31.877Z,37.97
2018-10-16T21:39:34.794Z,41.17
2018-10-16T21:42:37.584Z,38.23
2018-10-16T21:45:40.602Z,39.37
2018-10-16T21:48:44.652Z,40.17
2018-10-16T21:51:47.396Z,37.73
2018-10-16T21:54:50.180Z,40.93
2018-10-16T21:57:52.936Z,39.50
2018-10-16T22:01:03.682Z,39.33
2018-10-16T22:04:07.188Z,41.57
2018-10-16T22:07:10.015Z,40.27
2018-10-16T22:10:13.603Z,41.03
2018-10-16T22:13:16.552Z,43.13
2018-10-16T22:16:19.423Z,44.30
2018-10-16T22:19:22.497Z,44.77
2018-10-16T22:22:26.569Z,44.97
2018-10-16T22:25:29.489Z,42.03
2018-10-16T22:28:32.457Z,42.93
2018-10-16T22:31:35.676Z,41.10
2018-10-16T22:34:38.561Z,38.87
2018-10-16T22:37:41.376Z,37.40
2018-10-16T22:40:44.112Z,37.83
2018-10-16T22:43:56.669Z,39.87
2018-10-16T22:46:59.646Z,38.83
2018-10-16T22:50:02.658Z,38.50
2018-10-16T22:53:05.551Z,40.23
2018-10-16T22:56:08.324Z,41.13
2018-10-16T22:59:11.146Z,40.43
2018-10-16T23:02:13.867Z,39.03
2018-10-16T23:05:16.800Z,37.70
2018-10-16T23:08:19.434Z,36.30
2018-10-16T23:11:22.449Z,39.10
2018-10-16T23:14:26.023Z,37.47
2018-10-16T23:17:28.826Z,37.93
2018-10-16T23:20:32.078Z,34.90
2018-10-16T23:23:34.813Z,35.23
2018-10-16T23:26:37.744Z,33.63
2018-10-16T23:29:40.542Z,34.23
2018-10-16T23:32:43.404Z,34.67
2018-10-16T23:35:46.197Z,34.93
2018-10-16T23:38:48.974Z,36.63
2018-10-16T23:41:51.731Z,35.40
2018-10-16T23:44:54.478Z,36.30
2018-10-16T23:47:57.240Z,36.33
2018-10-16T23:51:00.054Z,37.30
2018-10-16T23:54:02.933Z,34.93
2018-10-16T23:57:05.906Z,32.37
